sensor_id;sensor_type;location;lat;lon;timestamp;temperature;humidity
40287;DHT22;25998;46.604;13.610;2022-11-20T00:00:23;5.00;99.90
40287;DHT22;25998;46.604;13.610;2022-11-20T00:03:34;5.00;99.90
40287;DHT22;25998;46.604;13.610;2022-11-20T00:06:46;4.90;99.90
40287;DHT22;25998;46.604;13.610;2022-11-20T00:09:57;4.90;99.90
40287;DHT22;25998;46.604;13.610;2022-11-20T00:13:08;4.90;99.90
40287;DHT22;25998;46.604;13.610;2022-11-20T00:16:21;4.90;99.90
40287;DHT22;25998;46.604;13.610;2022-11-20T00:19:33;4.90;99.90
40287;DHT22;25998;46.604;13.610;2022-11-20T00:22:44;4.90;99.90
40287;DHT22;25998;46.604;13.610;2022-11-20T00:26:07;4.90;99.90
40287;DHT22;25998;46.604;13.610;2022-11-20T00:29:18;5.00;99.90
40287;DHT22;25998;46.604;13.610;2022-11-20T00:32:30;5.00;99.90
40287;DHT22;25998;46.604;13.610;2022-11-20T00:35:41;4.90;99.90
40287;DHT22;25998;46.604;13.610;2022-11-20T00:38:57;4.90;99.90
40287;DHT22;25998;46.604;13.610;2022-11-20T00:42:08;5.00;99.90
40287;DHT22;25998;46.604;13.610;2022-11-20T00:45:18;4.90;99.90
40287;DHT22;25998;46.604;13.610;2022-11-20T00:48:30;5.00;99.90
40287;DHT22;25998;46.604;13.610;2022-11-20T00:51:41;5.10;99.90
40287;DHT22;25998;46.604;13.610;2022-11-20T00:54:51;5.10;99.90
40287;DHT22;25998;46.604;13.610;2022-11-20T00:58:02;5.10;99.90
40287;DHT22;25998;46.604;13.610;2022-11-20T01:01:19;4.70;99.90
40287;DHT22;25998;46.604;13.610;2022-11-20T01:04:30;4.60;99.90
40287;DHT22;25998;46.604;13.610;2022-11-20T01:07:40;4.60;99.90
40287;DHT22;25998;46.604;13.610;2022-11-20T01:10:51;4.70;99.90
40287;DHT22;25998;46.604;13.610;2022-11-20T01:14:05;4.70;99.90
40287;DHT22;25998;46.604;13.610;2022-11-20T01:17:16;4.70;99.90
40287;DHT22;25998;46.604;13.610;2022-11-20T01:20:27;4.70;99.90
40287;DHT22;25998;46.604;13.610;2022-11-20T01:23:40;4.90;99.90
40287;DHT22;25998;46.604;13.610;2022-11-20T01:26:51;4.90;99.90
40287;DHT22;25998;46.604;13.610;2022-11-20T01:30:02;4.90;99.90
40287;DHT22;25998;46.604;13.610;2022-11-20T01:33:13;5.00;99.90
40287;DHT22;25998;46.604;13.610;2022-11-20T01:36:26;5.10;99.90
40287;DHT22;25998;46.604;13.610;2022-11-20T01:39:38;5.00;99.90
40287;DHT22;25998;46.604;13.610;2022-11-20T01:42:58;4.90;99.90
40287;DHT22;25998;46.604;13.610;2022-11-20T01:46:36;4.90;99.90
40287;DHT22;25998;46.604;13.610;2022-11-20T01:49:59;4.90;99.90
40287;DHT22;25998;46.604;13.610;2022-11-20T01:53:14;4.90;99.90
40287;DHT22;25998;46.604;13.610;2022-11-20T01:56:27;4.80;99.90
40287;DHT22;25998;46.604;13.610;2022-11-20T01:59:43;4.80;99.90
40287;DHT22;25998;46.604;13.610;2022-11-20T02:02:59;4.80;99.90
40287;DHT22;25998;46.604;13.610;2022-11-20T02:06:19;4.80;99.90
40287;DHT22;25998;46.604;13.610;2022-11-20T02:09:32;4.80;99.90
40287;DHT22;25998;46.604;13.610;2022-11-20T02:12:43;4.90;99.90
40287;DHT22;25998;46.604;13.610;2022-11-20T02:16:39;4.90;99.90
40287;DHT22;25998;46.604;13.610;2022-11-20T02:19:51;5.00;99.90
40287;DHT22;25998;46.604;13.610;2022-11-20T02:23:27;5.00;99.90
40287;DHT22;25998;46.604;13.610;2022-11-20T02:27:05;5.00;99.90
40287;DHT22;25998;46.604;13.610;2022-11-20T02:30:18;4.90;99.90
40287;DHT22;25998;46.604;13.610;2022-11-20T02:33:29;4.80;99.90
40287;DHT22;25998;46.604;13.610;2022-11-20T02:36:41;4.90;99.90
40287;DHT22;25998;46.604;13.610;2022-11-20T02:39:52;5.00;99.90
40287;DHT22;25998;46.604;13.610;2022-11-20T02:43:04;5.10;99.90
40287;DHT22;25998;46.604;13.610;2022-11-20T02:46:14;5.10;99.90
40287;DHT22;25998;46.604;13.610;2022-11-20T02:49:25;5.00;99.90
40287;DHT22;25998;46.604;13.610;2022-11-20T02:52:36;5.00;99.90
40287;DHT22;25998;46.604;13.610;2022-11-20T02:55:47;5.00;99.90
40287;DHT22;25998;46.604;13.610;2022-11-20T02:58:58;5.00;99.90
40287;DHT22;25998;46.604;13.610;2022-11-20T03:02:09;5.00;99.90
40287;DHT22;25998;46.604;13.610;2022-11-20T03:05:20;5.10;99.90
40287;DHT22;25998;46.604;13.610;2022-11-20T03:08:30;5.20;99.90
40287;DHT22;25998;46.604;13.610;2022-11-20T03:11:41;5.20;99.90
40287;DHT22;25998;46.604;13.610;2022-11-20T03:14:52;5.10;99.90
40287;DHT22;25998;46.604;13.610;2022-11-20T03:18:03;5.10;99.90
40287;DHT22;25998;46.604;13.610;2022-11-20T03:21:15;5.10;99.90
40287;DHT22;25998;46.604;13.610;2022-11-20T03:24:26;5.00;99.90
40287;DHT22;25998;46.604;13.610;2022-11-20T03:27:37;5.00;99.90
40287;DHT22;25998;46.604;13.610;2022-11-20T03:30:48;5.00;99.90
40287;DHT22;25998;46.604;13.610;2022-11-20T03:33:59;5.10;99.90
40287;DHT22;25998;46.604;13.610;2022-11-20T03:37:10;5.10;99.90
40287;DHT22;25998;46.604;13.610;2022-11-20T03:40:21;5.10;99.90
40287;DHT22;25998;46.604;13.610;2022-11-20T03:43:32;5.20;99.90
40287;DHT22;25998;46.604;13.610;2022-11-20T03:46:43;5.20;99.90
40287;DHT22;25998;46.604;13.610;2022-11-20T03:49:54;5.30;99.90
40287;DHT22;25998;46.604;13.610;2022-11-20T03:53:05;5.20;99.90
40287;DHT22;25998;46.604;13.610;2022-11-20T03:56:17;5.20;99.90
40287;DHT22;25998;46.604;13.610;2022-11-20T03:59:28;5.20;99.90
40287;DHT22;25998;46.604;13.610;2022-11-20T04:02:39;5.30;99.90
40287;DHT22;25998;46.604;13.610;2022-11-20T04:05:50;5.20;99.90
40287;DHT22;25998;46.604;13.610;2022-11-20T04:09:01;5.00;99.90
40287;DHT22;25998;46.604;13.610;2022-11-20T04:12:11;4.80;99.90
40287;DHT22;25998;46.604;13.610;2022-11-20T04:15:22;4.70;99.90
40287;DHT22;25998;46.604;13.610;2022-11-20T04:18:33;4.70;99.90
40287;DHT22;25998;46.604;13.610;2022-11-20T04:21:45;4.70;99.90
40287;DHT22;25998;46.604;13.610;2022-11-20T04:24:55;4.80;99.90
40287;DHT22;25998;46.604;13.610;2022-11-20T04:28:06;4.80;99.90
40287;DHT22;25998;46.604;13.610;2022-11-20T04:31:19;4.90;99.90
40287;DHT22;25998;46.604;13.610;2022-11-20T04:34:30;4.80;99.90
40287;DHT22;25998;46.604;13.610;2022-11-20T04:37:41;4.90;99.90
40287;DHT22;25998;46.604;13.610;2022-11-20T04:41:05;5.00;99.90
40287;DHT22;25998;46.604;13.610;2022-11-20T04:44:16;5.00;99.90
40287;DHT22;25998;46.604;13.610;2022-11-20T04:47:27;5.00;99.90
40287;DHT22;25998;46.604;13.610;2022-11-20T04:50:40;5.00;99.90
40287;DHT22;25998;46.604;13.610;2022-11-20T04:53:51;5.10;99.90
40287;DHT22;25998;46.604;13.610;2022-11-20T04:57:02;4.90;99.90
40287;DHT22;25998;46.604;13.610;2022-11-20T05:00:13;4.90;99.90
40287;DHT22;25998;46.604;13.610;2022-11-20T05:03:24;4.90;99.90
40287;DHT22;25998;46.604;13.610;2022-11-20T05:06:35;5.00;99.90
40287;DHT22;25998;46.604;13.610;2022-11-20T05:09:46;5.00;99.90
40287;DHT22;25998;46.604;13.610;2022-11-20T05:12:57;4.80;99.90
40287;DHT22;25998;46.604;13.610;2022-11-20T05:16:13;4.70;99.90
40287;DHT22;25998;46.604;13.610;2022-11-20T05:19:24;4.70;99.90
40287;DHT22;25998;46.604;13.610;2022-11-20T05:22:35;4.90;99.90
40287;DHT22;25998;46.604;13.610;2022-11-20T05:25:46;5.00;99.90
40287;DHT22;25998;46.604;13.610;2022-11-20T05:28:57;4.90;99.90
40287;DHT22;25998;46.604;13.610;2022-11-20T05:32:07;5.10;99.90
40287;DHT22;25998;46.604;13.610;2022-11-20T05:35:20;4.90;99.90
40287;DHT22;25998;46.604;13.610;2022-11-20T05:38:31;4.80;99.90
40287;DHT22;25998;46.604;13.610;2022-11-20T05:41:42;4.80;99.90
40287;DHT22;25998;46.604;13.610;2022-11-20T05:44:52;4.80;99.90
40287;DHT22;25998;46.604;13.610;2022-11-20T05:48:04;5.00;99.90
40287;DHT22;25998;46.604;13.610;2022-11-20T05:51:17;5.00;99.90
40287;DHT22;25998;46.604;13.610;2022-11-20T05:54:28;5.00;99.90
40287;DHT22;25998;46.604;13.610;2022-11-20T05:57:39;5.00;99.90
40287;DHT22;25998;46.604;13.610;2022-11-20T06:00:49;4.90;99.90
40287;DHT22;25998;46.604;13.610;2022-11-20T06:04:00;4.90;99.90
40287;DHT22;25998;46.604;13.610;2022-11-20T06:07:11;4.90;99.90
40287;DHT22;25998;46.604;13.610;2022-11-20T06:10:22;4.80;99.90
40287;DHT22;25998;46.604;13.610;2022-11-20T06:13:33;4.90;99.90
40287;DHT22;25998;46.604;13.610;2022-11-20T06:16:44;4.90;99.90
40287;DHT22;25998;46.604;13.610;2022-11-20T06:19:55;4.70;99.90
40287;DHT22;25998;46.604;13.610;2022-11-20T06:23:06;4.60;99.90
40287;DHT22;25998;46.604;13.610;2022-11-20T06:26:20;4.70;99.90
40287;DHT22;25998;46.604;13.610;2022-11-20T06:29:31;4.60;99.90
40287;DHT22;25998;46.604;13.610;2022-11-20T06:32:42;4.60;99.90
40287;DHT22;25998;46.604;13.610;2022-11-20T06:35:59;4.70;99.90
40287;DHT22;25998;46.604;13.610;2022-11-20T06:39:10;4.80;99.90
40287;DHT22;25998;46.604;13.610;2022-11-20T06:42:21;4.70;99.90
40287;DHT22;25998;46.604;13.610;2022-11-20T06:45:32;4.70;99.90
40287;DHT22;25998;46.604;13.610;2022-11-20T06:48:44;4.70;99.90
40287;DHT22;25998;46.604;13.610;2022-11-20T06:51:54;4.70;99.90
40287;DHT22;25998;46.604;13.610;2022-11-20T06:55:06;4.70;99.90
40287;DHT22;25998;46.604;13.610;2022-11-20T06:58:17;4.70;99.90
40287;DHT22;25998;46.604;13.610;2022-11-20T07:01:28;4.50;99.90
40287;DHT22;25998;46.604;13.610;2022-11-20T07:04:39;4.40;99.90
40287;DHT22;25998;46.604;13.610;2022-11-20T07:07:50;4.50;99.90
40287;DHT22;25998;46.604;13.610;2022-11-20T07:11:04;4.60;99.90
40287;DHT22;25998;46.604;13.610;2022-11-20T07:14:15;4.70;99.90
40287;DHT22;25998;46.604;13.610;2022-11-20T07:17:26;4.60;99.90
40287;DHT22;25998;46.604;13.610;2022-11-20T07:20:37;4.50;99.90
40287;DHT22;25998;46.604;13.610;2022-11-20T07:23:47;4.40;99.90
40287;DHT22;25998;46.604;13.610;2022-11-20T07:26:58;4.30;99.90
40287;DHT22;25998;46.604;13.610;2022-11-20T07:30:09;4.40;99.90
40287;DHT22;25998;46.604;13.610;2022-11-20T07:33:20;4.50;99.90
40287;DHT22;25998;46.604;13.610;2022-11-20T07:36:31;4.60;99.90
40287;DHT22;25998;46.604;13.610;2022-11-20T07:39:42;4.60;99.90
40287;DHT22;25998;46.604;13.610;2022-11-20T07:42:54;4.50;99.90
40287;DHT22;25998;46.604;13.610;2022-11-20T07:46:05;4.40;99.90
40287;DHT22;25998;46.604;13.610;2022-11-20T07:49:16;4.30;99.90
40287;DHT22;25998;46.604;13.610;2022-11-20T07:52:28;4.40;99.90
40287;DHT22;25998;46.604;13.610;2022-11-20T07:55:39;4.40;99.90
40287;DHT22;25998;46.604;13.610;2022-11-20T07:58:50;4.40;99.90
40287;DHT22;25998;46.604;13.610;2022-11-20T08:02:01;4.40;99.90
40287;DHT22;25998;46.604;13.610;2022-11-20T08:05:12;4.40;99.90
40287;DHT22;25998;46.604;13.610;2022-11-20T08:08:23;4.60;99.90
40287;DHT22;25998;46.604;13.610;2022-11-20T08:11:33;4.70;99.90
40287;DHT22;25998;46.604;13.610;2022-11-20T08:15:04;4.80;99.90
40287;DHT22;25998;46.604;13.610;2022-11-20T08:18:15;4.80;99.90
40287;DHT22;25998;46.604;13.610;2022-11-20T08:21:26;4.80;99.90
40287;DHT22;25998;46.604;13.610;2022-11-20T08:24:36;4.80;99.90
40287;DHT22;25998;46.604;13.610;2022-11-20T08:27:47;4.90;99.90
40287;DHT22;25998;46.604;13.610;2022-11-20T08:31:00;4.90;99.90
40287;DHT22;25998;46.604;13.610;2022-11-20T08:34:11;5.00;99.90
40287;DHT22;25998;46.604;13.610;2022-11-20T08:37:22;5.20;99.90
40287;DHT22;25998;46.604;13.610;2022-11-20T08:40:33;5.30;99.90
40287;DHT22;25998;46.604;13.610;2022-11-20T08:43:44;5.20;99.90
40287;DHT22;25998;46.604;13.610;2022-11-20T08:46:58;5.10;99.90
40287;DHT22;25998;46.604;13.610;2022-11-20T08:50:10;5.20;99.90
40287;DHT22;25998;46.604;13.610;2022-11-20T08:53:20;5.20;99.90
40287;DHT22;25998;46.604;13.610;2022-11-20T08:56:31;5.40;99.90
40287;DHT22;25998;46.604;13.610;2022-11-20T08:59:42;5.40;99.90
40287;DHT22;25998;46.604;13.610;2022-11-20T09:02:53;5.40;99.90
40287;DHT22;25998;46.604;13.610;2022-11-20T09:06:06;5.50;99.90
40287;DHT22;25998;46.604;13.610;2022-11-20T09:09:17;5.40;99.90
40287;DHT22;25998;46.604;13.610;2022-11-20T09:12:29;5.40;99.90
40287;DHT22;25998;46.604;13.610;2022-11-20T09:15:40;5.50;99.90
40287;DHT22;25998;46.604;13.610;2022-11-20T09:18:50;5.60;99.90
40287;DHT22;25998;46.604;13.610;2022-11-20T09:22:02;5.60;99.90
40287;DHT22;25998;46.604;13.610;2022-11-20T09:25:13;5.80;99.90
40287;DHT22;25998;46.604;13.610;2022-11-20T09:28:23;5.90;99.90
40287;DHT22;25998;46.604;13.610;2022-11-20T09:31:34;5.90;99.90
40287;DHT22;25998;46.604;13.610;2022-11-20T09:34:45;5.90;99.90
40287;DHT22;25998;46.604;13.610;2022-11-20T09:37:56;6.00;99.90
40287;DHT22;25998;46.604;13.610;2022-11-20T09:41:14;5.90;99.90
40287;DHT22;25998;46.604;13.610;2022-11-20T09:44:58;5.90;99.90
40287;DHT22;25998;46.604;13.610;2022-11-20T09:48:42;5.90;99.90
40287;DHT22;25998;46.604;13.610;2022-11-20T09:52:04;5.90;99.90
40287;DHT22;25998;46.604;13.610;2022-11-20T09:55:19;6.10;99.90
40287;DHT22;25998;46.604;13.610;2022-11-20T09:58:33;6.60;99.90
40287;DHT22;25998;46.604;13.610;2022-11-20T10:01:46;6.70;99.90
40287;DHT22;25998;46.604;13.610;2022-11-20T10:05:06;6.70;99.90
40287;DHT22;25998;46.604;13.610;2022-11-20T10:08:29;6.90;99.90
40287;DHT22;25998;46.604;13.610;2022-11-20T10:15:09;7.10;99.90
40287;DHT22;25998;46.604;13.610;2022-11-20T10:18:55;7.20;99.90
40287;DHT22;25998;46.604;13.610;2022-11-20T10:22:20;7.20;99.90
40287;DHT22;25998;46.604;13.610;2022-11-20T10:26:00;7.30;99.90
40287;DHT22;25998;46.604;13.610;2022-11-20T10:29:20;7.70;99.90
40287;DHT22;25998;46.604;13.610;2022-11-20T10:32:39;8.20;99.90
40287;DHT22;25998;46.604;13.610;2022-11-20T10:36:04;8.60;99.90
40287;DHT22;25998;46.604;13.610;2022-11-20T10:39:35;9.00;99.90
40287;DHT22;25998;46.604;13.610;2022-11-20T10:43:01;9.40;99.90
40287;DHT22;25998;46.604;13.610;2022-11-20T10:46:23;9.30;99.90
40287;DHT22;25998;46.604;13.610;2022-11-20T10:49:35;9.20;99.90
40287;DHT22;25998;46.604;13.610;2022-11-20T10:53:31;9.50;99.90
40287;DHT22;25998;46.604;13.610;2022-11-20T10:56:51;10.00;99.90
40287;DHT22;25998;46.604;13.610;2022-11-20T11:00:10;9.80;99.90
40287;DHT22;25998;46.604;13.610;2022-11-20T11:03:27;9.80;99.90
40287;DHT22;25998;46.604;13.610;2022-11-20T11:06:45;9.50;99.90
40287;DHT22;25998;46.604;13.610;2022-11-20T11:09:57;9.70;99.90
40287;DHT22;25998;46.604;13.610;2022-11-20T11:13:22;10.30;99.90
40287;DHT22;25998;46.604;13.610;2022-11-20T11:16:34;10.50;99.90
40287;DHT22;25998;46.604;13.610;2022-11-20T11:19:56;10.40;99.90
40287;DHT22;25998;46.604;13.610;2022-11-20T11:23:30;10.20;99.90
40287;DHT22;25998;46.604;13.610;2022-11-20T11:26:51;10.40;99.90
40287;DHT22;25998;46.604;13.610;2022-11-20T11:30:15;10.20;99.90
40287;DHT22;25998;46.604;13.610;2022-11-20T11:33:31;9.90;99.90
40287;DHT22;25998;46.604;13.610;2022-11-20T11:36:57;9.60;99.90
40287;DHT22;25998;46.604;13.610;2022-11-20T11:40:12;9.40;99.90
40287;DHT22;25998;46.604;13.610;2022-11-20T11:43:25;9.30;99.90
40287;DHT22;25998;46.604;13.610;2022-11-20T11:46:55;9.00;99.90
40287;DHT22;25998;46.604;13.610;2022-11-20T11:53:22;9.00;99.90
40287;DHT22;25998;46.604;13.610;2022-11-20T11:56:34;8.80;99.90
40287;DHT22;25998;46.604;13.610;2022-11-20T12:00:00;8.60;99.90
40287;DHT22;25998;46.604;13.610;2022-11-20T12:03:35;8.60;99.90
40287;DHT22;25998;46.604;13.610;2022-11-20T12:06:50;8.90;99.90
40287;DHT22;25998;46.604;13.610;2022-11-20T12:10:03;8.40;99.90
40287;DHT22;25998;46.604;13.610;2022-11-20T12:13:48;8.30;99.90
40287;DHT22;25998;46.604;13.610;2022-11-20T12:16:57;8.50;99.90
40287;DHT22;25998;46.604;13.610;2022-11-20T12:20:13;8.50;99.90
40287;DHT22;25998;46.604;13.610;2022-11-20T12:30:11;8.50;99.90
40287;DHT22;25998;46.604;13.610;2022-11-20T12:33:49;8.60;99.90
40287;DHT22;25998;46.604;13.610;2022-11-20T12:51:59;8.30;99.90
40287;DHT22;25998;46.604;13.610;2022-11-20T12:55:44;8.50;99.90
40287;DHT22;25998;46.604;13.610;2022-11-20T13:02:30;8.40;99.90
40287;DHT22;25998;46.604;13.610;2022-11-20T13:06:17;8.30;99.90
40287;DHT22;25998;46.604;13.610;2022-11-20T13:09:28;8.30;99.90
40287;DHT22;25998;46.604;13.610;2022-11-20T13:13:00;8.00;99.90
40287;DHT22;25998;46.604;13.610;2022-11-20T13:16:44;7.70;99.90
40287;DHT22;25998;46.604;13.610;2022-11-20T13:19:58;7.80;99.90
40287;DHT22;25998;46.604;13.610;2022-11-20T13:23:09;8.00;99.90
40287;DHT22;25998;46.604;13.610;2022-11-20T13:26:22;8.20;99.90
40287;DHT22;25998;46.604;13.610;2022-11-20T13:29:37;8.30;99.90
40287;DHT22;25998;46.604;13.610;2022-11-20T13:33:08;8.40;99.90
40287;DHT22;25998;46.604;13.610;2022-11-20T13:36:25;8.20;99.90
40287;DHT22;25998;46.604;13.610;2022-11-20T13:39:36;8.20;99.90
40287;DHT22;25998;46.604;13.610;2022-11-20T13:43:11;8.40;99.90
40287;DHT22;25998;46.604;13.610;2022-11-20T13:46:39;8.40;99.90
40287;DHT22;25998;46.604;13.610;2022-11-20T13:49:52;8.30;99.90
40287;DHT22;25998;46.604;13.610;2022-11-20T14:00:13;7.90;99.90
40287;DHT22;25998;46.604;13.610;2022-11-20T14:03:26;8.00;99.90
40287;DHT22;25998;46.604;13.610;2022-11-20T14:06:42;8.10;99.90
40287;DHT22;25998;46.604;13.610;2022-11-20T14:09:55;7.70;99.90
40287;DHT22;25998;46.604;13.610;2022-11-20T14:13:19;7.70;99.90
40287;DHT22;25998;46.604;13.610;2022-11-20T14:16:34;7.50;99.90
40287;DHT22;25998;46.604;13.610;2022-11-20T14:19:46;7.60;99.90
40287;DHT22;25998;46.604;13.610;2022-11-20T14:22:58;7.70;99.90
40287;DHT22;25998;46.604;13.610;2022-11-20T14:26:14;7.70;99.90
40287;DHT22;25998;46.604;13.610;2022-11-20T14:29:34;7.60;99.90
40287;DHT22;25998;46.604;13.610;2022-11-20T14:32:46;7.60;99.90
40287;DHT22;25998;46.604;13.610;2022-11-20T14:35:58;7.50;99.90
40287;DHT22;25998;46.604;13.610;2022-11-20T14:39:12;7.30;99.90
40287;DHT22;25998;46.604;13.610;2022-11-20T14:42:25;7.30;99.90
40287;DHT22;25998;46.604;13.610;2022-11-20T14:45:37;7.20;99.90
40287;DHT22;25998;46.604;13.610;2022-11-20T14:48:56;7.10;99.90
40287;DHT22;25998;46.604;13.610;2022-11-20T14:52:18;7.10;99.90
40287;DHT22;25998;46.604;13.610;2022-11-20T14:55:37;7.10;99.90
40287;DHT22;25998;46.604;13.610;2022-11-20T14:58:56;7.10;99.90
40287;DHT22;25998;46.604;13.610;2022-11-20T15:02:11;7.20;99.90
40287;DHT22;25998;46.604;13.610;2022-11-20T15:05:46;7.20;99.90
40287;DHT22;25998;46.604;13.610;2022-11-20T15:08:58;7.30;99.90
40287;DHT22;25998;46.604;13.610;2022-11-20T15:12:17;7.30;99.90
40287;DHT22;25998;46.604;13.610;2022-11-20T15:15:49;7.20;99.90
40287;DHT22;25998;46.604;13.610;2022-11-20T15:19:02;7.10;99.90
40287;DHT22;25998;46.604;13.610;2022-11-20T15:22:13;7.00;99.90
40287;DHT22;25998;46.604;13.610;2022-11-20T15:25:26;7.00;99.90
40287;DHT22;25998;46.604;13.610;2022-11-20T15:28:46;7.00;99.90
40287;DHT22;25998;46.604;13.610;2022-11-20T15:31:58;7.10;99.90
40287;DHT22;25998;46.604;13.610;2022-11-20T15:35:09;7.00;99.90
40287;DHT22;25998;46.604;13.610;2022-11-20T15:38:20;6.90;99.90
40287;DHT22;25998;46.604;13.610;2022-11-20T15:41:31;7.00;99.90
40287;DHT22;25998;46.604;13.610;2022-11-20T15:44:42;7.10;99.90
40287;DHT22;25998;46.604;13.610;2022-11-20T15:47:53;7.10;99.90
40287;DHT22;25998;46.604;13.610;2022-11-20T15:54:22;6.80;99.90
40287;DHT22;25998;46.604;13.610;2022-11-20T15:57:33;6.80;99.90
40287;DHT22;25998;46.604;13.610;2022-11-20T16:00:44;6.80;99.90
40287;DHT22;25998;46.604;13.610;2022-11-20T16:03:55;6.90;99.90
40287;DHT22;25998;46.604;13.610;2022-11-20T16:07:06;6.80;99.90
40287;DHT22;25998;46.604;13.610;2022-11-20T16:10:17;6.80;99.90
40287;DHT22;25998;46.604;13.610;2022-11-20T16:13:30;6.80;99.90
40287;DHT22;25998;46.604;13.610;2022-11-20T16:17:00;6.90;99.90
40287;DHT22;25998;46.604;13.610;2022-11-20T16:20:12;7.00;99.90
40287;DHT22;25998;46.604;13.610;2022-11-20T16:23:23;7.00;99.90
40287;DHT22;25998;46.604;13.610;2022-11-20T16:26:34;6.90;99.90
40287;DHT22;25998;46.604;13.610;2022-11-20T16:29:45;6.80;99.90
40287;DHT22;25998;46.604;13.610;2022-11-20T16:32:56;6.80;99.90
40287;DHT22;25998;46.604;13.610;2022-11-20T16:36:11;6.60;99.90
40287;DHT22;25998;46.604;13.610;2022-11-20T16:39:24;6.70;99.90
40287;DHT22;25998;46.604;13.610;2022-11-20T16:42:36;6.80;99.90
40287;DHT22;25998;46.604;13.610;2022-11-20T16:45:48;6.70;99.90
40287;DHT22;25998;46.604;13.610;2022-11-20T16:49:04;6.60;99.90
40287;DHT22;25998;46.604;13.610;2022-11-20T16:52:18;6.70;99.90
40287;DHT22;25998;46.604;13.610;2022-11-20T16:55:29;6.70;99.90
40287;DHT22;25998;46.604;13.610;2022-11-20T16:58:40;6.70;99.90
40287;DHT22;25998;46.604;13.610;2022-11-20T17:01:51;6.80;99.90
40287;DHT22;25998;46.604;13.610;2022-11-20T17:05:02;6.80;99.90
40287;DHT22;25998;46.604;13.610;2022-11-20T17:08:12;6.80;99.90
40287;DHT22;25998;46.604;13.610;2022-11-20T17:11:24;6.90;99.90
40287;DHT22;25998;46.604;13.610;2022-11-20T17:14:35;6.80;99.90
40287;DHT22;25998;46.604;13.610;2022-11-20T17:17:46;6.60;99.90
40287;DHT22;25998;46.604;13.610;2022-11-20T17:20:58;6.60;99.90
40287;DHT22;25998;46.604;13.610;2022-11-20T17:24:11;6.70;99.90
40287;DHT22;25998;46.604;13.610;2022-11-20T17:27:22;6.70;99.90
40287;DHT22;25998;46.604;13.610;2022-11-20T17:30:33;6.70;99.90
40287;DHT22;25998;46.604;13.610;2022-11-20T17:33:45;6.80;99.90
40287;DHT22;25998;46.604;13.610;2022-11-20T17:36:57;6.70;99.90
40287;DHT22;25998;46.604;13.610;2022-11-20T17:40:08;6.80;99.90
40287;DHT22;25998;46.604;13.610;2022-11-20T17:43:19;6.70;99.90
40287;DHT22;25998;46.604;13.610;2022-11-20T17:46:31;6.80;99.90
40287;DHT22;25998;46.604;13.610;2022-11-20T17:49:45;6.90;99.90
40287;DHT22;25998;46.604;13.610;2022-11-20T17:52:56;6.90;99.90
40287;DHT22;25998;46.604;13.610;2022-11-20T17:56:07;6.90;99.90
40287;DHT22;25998;46.604;13.610;2022-11-20T17:59:37;6.90;99.90
40287;DHT22;25998;46.604;13.610;2022-11-20T18:02:48;6.90;99.90
40287;DHT22;25998;46.604;13.610;2022-11-20T18:06:15;6.80;99.90
40287;DHT22;25998;46.604;13.610;2022-11-20T18:09:26;6.80;99.90
40287;DHT22;25998;46.604;13.610;2022-11-20T18:12:37;6.80;99.90
40287;DHT22;25998;46.604;13.610;2022-11-20T18:15:48;6.80;99.90
40287;DHT22;25998;46.604;13.610;2022-11-20T18:18:59;6.80;99.90
40287;DHT22;25998;46.604;13.610;2022-11-20T18:22:14;6.90;99.90
40287;DHT22;25998;46.604;13.610;2022-11-20T18:25:26;6.80;99.90
40287;DHT22;25998;46.604;13.610;2022-11-20T18:28:37;6.60;99.90
40287;DHT22;25998;46.604;13.610;2022-11-20T18:31:48;6.50;99.90
40287;DHT22;25998;46.604;13.610;2022-11-20T18:34:59;6.40;99.90
40287;DHT22;25998;46.604;13.610;2022-11-20T18:38:10;6.50;99.90
40287;DHT22;25998;46.604;13.610;2022-11-20T18:41:27;6.50;99.90
40287;DHT22;25998;46.604;13.610;2022-11-20T18:44:56;6.50;99.90
40287;DHT22;25998;46.604;13.610;2022-11-20T18:48:09;6.40;99.90
40287;DHT22;25998;46.604;13.610;2022-11-20T18:51:20;6.40;99.90
40287;DHT22;25998;46.604;13.610;2022-11-20T18:54:31;6.40;99.90
40287;DHT22;25998;46.604;13.610;2022-11-20T18:57:42;6.50;99.90
40287;DHT22;25998;46.604;13.610;2022-11-20T19:00:52;6.70;99.90
40287;DHT22;25998;46.604;13.610;2022-11-20T19:04:07;6.80;99.90
40287;DHT22;25998;46.604;13.610;2022-11-20T19:07:21;6.60;99.90
40287;DHT22;25998;46.604;13.610;2022-11-20T19:10:32;6.50;99.90
40287;DHT22;25998;46.604;13.610;2022-11-20T19:13:46;6.40;99.90
40287;DHT22;25998;46.604;13.610;2022-11-20T19:16:57;6.30;99.90
40287;DHT22;25998;46.604;13.610;2022-11-20T19:20:08;6.30;99.90
40287;DHT22;25998;46.604;13.610;2022-11-20T19:23:19;6.40;99.90
40287;DHT22;25998;46.604;13.610;2022-11-20T19:26:34;6.30;99.90
40287;DHT22;25998;46.604;13.610;2022-11-20T19:29:45;6.30;99.90
40287;DHT22;25998;46.604;13.610;2022-11-20T19:32:56;6.40;99.90
40287;DHT22;25998;46.604;13.610;2022-11-20T19:36:18;6.40;99.90
40287;DHT22;25998;46.604;13.610;2022-11-20T19:39:29;6.30;99.90
40287;DHT22;25998;46.604;13.610;2022-11-20T19:42:40;6.30;99.90
40287;DHT22;25998;46.604;13.610;2022-11-20T19:45:51;6.30;99.90
40287;DHT22;25998;46.604;13.610;2022-11-20T19:49:03;6.30;99.90
40287;DHT22;25998;46.604;13.610;2022-11-20T19:52:14;6.20;99.90
40287;DHT22;25998;46.604;13.610;2022-11-20T19:55:25;6.20;99.90
40287;DHT22;25998;46.604;13.610;2022-11-20T19:58:37;6.10;99.90
40287;DHT22;25998;46.604;13.610;2022-11-20T20:01:48;6.20;99.90
40287;DHT22;25998;46.604;13.610;2022-11-20T20:04:59;6.30;99.90
40287;DHT22;25998;46.604;13.610;2022-11-20T20:08:10;6.30;99.90
40287;DHT22;25998;46.604;13.610;2022-11-20T20:11:24;6.30;99.90
40287;DHT22;25998;46.604;13.610;2022-11-20T20:14:35;6.30;99.90
40287;DHT22;25998;46.604;13.610;2022-11-20T20:17:46;6.40;99.90
40287;DHT22;25998;46.604;13.610;2022-11-20T20:21:11;6.50;99.90
40287;DHT22;25998;46.604;13.610;2022-11-20T20:24:22;6.40;99.90
40287;DHT22;25998;46.604;13.610;2022-11-20T20:27:33;6.30;99.90
40287;DHT22;25998;46.604;13.610;2022-11-20T20:30:46;6.20;99.90
40287;DHT22;25998;46.604;13.610;2022-11-20T20:33:57;6.10;99.90
40287;DHT22;25998;46.604;13.610;2022-11-20T20:37:08;6.10;99.90
40287;DHT22;25998;46.604;13.610;2022-11-20T20:40:18;6.10;99.90
40287;DHT22;25998;46.604;13.610;2022-11-20T20:43:29;6.10;99.90
40287;DHT22;25998;46.604;13.610;2022-11-20T20:46:41;6.00;99.90
40287;DHT22;25998;46.604;13.610;2022-11-20T20:49:51;6.00;99.90
40287;DHT22;25998;46.604;13.610;2022-11-20T20:53:04;6.00;99.90
40287;DHT22;25998;46.604;13.610;2022-11-20T20:56:16;6.00;99.90
40287;DHT22;25998;46.604;13.610;2022-11-20T20:59:27;6.00;99.90
40287;DHT22;25998;46.604;13.610;2022-11-20T21:02:38;6.00;99.90
40287;DHT22;25998;46.604;13.610;2022-11-20T21:05:55;6.00;99.90
40287;DHT22;25998;46.604;13.610;2022-11-20T21:09:06;6.00;99.90